Time;durP1;ratioP1;P1;durP2;ratioP2;P2;SDS_P1;SDS_P2;PMS_P1;PMS_P2;Temp;Humidity;BMP_temperature;BMP_pressure;BME280_temperature;BME280_humidity;BME280_pressure;Samples;Min_cycle;Max_cycle;Signal;HPM_P1;HPM_P2
2022/08/23 00:02:07;;;;;;;8.27;6.65;;;;;;;23.36;100.00;-9931.03;5052308;28;20190;-63
2022/08/23 00:04:38;;;;;;;10.27;6.78;;;;;;;23.43;100.00;-10256.88;5052238;28;20227;-63
2022/08/23 00:07:08;;;;;;;7.53;6.85;;;;;;;23.40;100.00;-9281.09;5052531;28;20185;-63
2022/08/23 00:09:35;;;;;;;8.60;6.68;;;;;;;23.21;100.00;-4724.47;5052274;28;20215;-64
2022/08/23 00:12:11;;;;;;;9.55;6.28;;;;;;;23.15;100.00;-4073.22;5052344;28;20264;-63
2022/08/23 00:14:41;;;;;;;6.93;6.43;;;;;;;22.97;100.00;-5374.84;5051970;28;20192;-62
2022/08/23 00:17:10;;;;;;;7.13;6.63;;;;;;;22.82;100.00;-7325.72;5051968;28;20285;-63
2022/08/23 00:19:38;;;;;;;9.95;7.28;;;;;;;22.87;100.00;-9601.22;5052075;28;20259;-63
2022/08/23 00:22:05;;;;;;;8.27;6.82;;;;;;;22.91;100.00;-11875.28;5051772;28;20225;-63
2022/08/23 00:24:34;;;;;;;7.88;7.18;;;;;;;22.86;100.00;-13173.16;5051797;28;20379;-62
2022/08/23 00:27:06;;;;;;;7.75;7.22;;;;;;;22.83;100.00;-13497.22;5052200;28;20201;-64
2022/08/23 00:29:39;;;;;;;10.75;6.85;;;;;;;22.84;100.00;-13497.38;5051691;28;20205;-63
2022/08/23 00:32:08;;;;;;;10.20;7.00;;;;;;;22.83;100.00;-13497.13;5051891;28;20188;-64
2022/08/23 00:34:35;;;;;;;9.70;7.05;;;;;;;22.65;100.00;-14467.44;5052217;28;20698;-64
2022/08/23 00:37:02;;;;;;;7.93;7.18;;;;;;;22.67;100.00;-14792.19;5052079;28;20185;-63
2022/08/23 00:39:29;;;;;;;11.95;7.53;;;;;;;22.83;100.00;-14794.88;5052283;28;20637;-63
2022/08/23 00:41:59;;;;;;;9.80;7.07;;;;;;;22.84;100.00;-15119.53;5052075;28;20189;-62
2022/08/23 00:50:09;;;;;;;7.80;6.82;;;;;;;22.76;100.00;-16090.81;5051915;28;20185;-63
2022/08/23 00:52:42;;;;;;;8.25;7.30;;;;;;;22.66;100.00;-16412.94;5051753;28;20192;-63
2022/08/23 00:55:09;;;;;;;9.93;6.78;;;;;;;22.65;100.00;-17384.94;5051529;28;20185;-64
2022/08/23 00:57:36;;;;;;;7.10;6.55;;;;;;;22.57;100.00;-18355.09;5051519;28;20190;-63
2022/08/23 01:00:07;;;;;;;9.30;6.95;;;;;;;22.58;100.00;-18355.22;5051660;28;20190;-63
2022/08/23 01:02:36;;;;;;;8.10;7.38;;;;;;;22.53;100.00;-18356.03;5051540;28;20196;-63
2022/08/23 01:05:06;;;;;;;8.98;7.00;;;;;;;22.51;100.00;-18355.56;5051759;28;20208;-64
2022/08/23 01:07:45;;;;;;;8.68;7.30;;;;;;;22.36;100.00;-18351.88;5051640;28;20240;-63
2022/08/23 01:10:19;;;;;;;7.13;6.47;;;;;;;22.43;100.00;-18353.53;5051446;28;20186;-63
2022/08/23 01:12:54;;;;;;;8.20;6.90;;;;;;;22.41;100.00;-18353.06;5051506;28;20181;-62
2022/08/23 01:15:26;;;;;;;12.35;7.05;;;;;;;22.53;100.00;-18356.03;5051444;28;20185;-63
2022/08/23 01:18:01;;;;;;;10.70;7.90;;;;;;;22.57;100.00;-18356.88;5051869;28;20181;-60
2022/08/23 01:20:35;;;;;;;14.73;8.00;;;;;;;22.62;100.00;-18358.19;5051856;28;20239;-63
2022/08/23 01:23:08;;;;;;;7.85;7.20;;;;;;;22.51;100.00;-18355.44;5051621;28;20190;-63
2022/08/23 01:25:37;;;;;;;8.38;7.88;;;;;;;22.54;100.00;-18356.28;5053780;28;20193;-63
2022/08/23 01:28:04;;;;;;;9.55;8.52;;;;;;;22.59;100.00;-18357.34;5055181;28;20586;-63
2022/08/23 01:30:33;;;;;;;15.57;8.55;;;;;;;22.58;100.00;-18357.22;5055422;28;20184;-63
2022/08/23 01:33:06;;;;;;;10.20;7.43;;;;;;;22.43;100.00;-18353.53;5053903;28;20682;-63
2022/08/23 01:35:38;;;;;;;10.63;7.50;;;;;;;22.59;100.00;-18357.34;5055266;28;20186;-63
2022/08/23 01:38:06;;;;;;;8.55;7.07;;;;;;;22.51;100.00;-18355.44;5055195;28;20188;-62
2022/08/23 01:40:33;;;;;;;7.68;7.05;;;;;;;22.58;100.00;-18357.22;5055078;28;20201;-63
2022/08/23 01:43:02;;;;;;;8.65;7.57;;;;;;;22.68;100.00;-18359.47;5055109;28;20190;-63
2022/08/23 01:45:29;;;;;;;10.20;8.05;;;;;;;22.72;100.00;-18360.44;5055083;28;20629;-63
2022/08/23 01:47:57;;;;;;;11.02;7.18;;;;;;;22.68;100.00;-18359.47;5054828;28;20272;-63
2022/08/23 01:50:25;;;;;;;9.18;8.40;;;;;;;22.70;100.00;-18360.09;5055025;28;20197;-64
2022/08/23 01:52:52;;;;;;;15.07;8.43;;;;;;;22.80;100.00;-18362.22;5055502;28;20185;-63
2022/08/23 01:55:20;;;;;;;9.93;8.45;;;;;;;22.81;100.00;-18362.56;5055178;28;20189;-63
2022/08/23 01:57:50;;;;;;;8.90;8.05;;;;;;;22.70;100.00;-18360.09;5055157;28;20186;-63
2022/08/23 02:00:20;;;;;;;9.25;8.35;;;;;;;22.75;100.00;-18361.28;5054728;28;20182;-63
2022/08/23 02:02:47;;;;;;;9.38;8.40;;;;;;;22.98;100.00;-18366.50;5055017;28;20189;-64
2022/08/23 02:05:14;;;;;;;15.98;9.45;;;;;;;23.04;100.00;-18368.03;5054579;28;20193;-63
2022/08/23 02:07:41;;;;;;;9.95;8.77;;;;;;;23.07;100.00;-18368.75;5054373;28;20178;-64
2022/08/23 02:10:09;;;;;;;16.75;8.95;;;;;;;23.12;100.00;-18369.81;5054780;28;20579;-63
2022/08/23 02:12:37;;;;;;;20.17;9.05;;;;;;;23.12;100.00;-18369.94;5054485;28;20192;-63
2022/08/23 02:15:05;;;;;;;16.08;8.63;;;;;;;23.12;100.00;-18369.94;5054834;28;20672;-63
2022/08/23 02:17:33;;;;;;;10.15;8.38;;;;;;;23.05;100.00;-18368.28;5054089;28;20196;-64
2022/08/23 02:20:03;;;;;;;13.73;8.75;;;;;;;23.12;100.00;-18369.94;5054410;28;20595;-62
2022/08/23 02:22:30;;;;;;;13.65;8.18;;;;;;;23.01;100.00;-18367.31;5053773;28;20233;-63
2022/08/23 02:24:57;;;;;;;9.88;8.88;;;;;;;23.03;100.00;-18367.69;5053887;28;20189;-63
2022/08/23 02:27:24;;;;;;;9.90;9.02;;;;;;;22.95;100.00;-18365.91;5054097;28;20193;-63
2022/08/23 02:29:51;;;;;;;18.15;9.55;;;;;;;23.05;100.00;-18368.28;5053763;28;20208;-62
2022/08/23 02:32:19;;;;;;;15.55;9.50;;;;;;;23.01;100.00;-18367.31;5054065;28;20193;-63
2022/08/23 02:34:47;;;;;;;12.68;9.15;;;;;;;23.02;100.00;-18367.56;5053734;28;20182;-63
2022/08/23 02:37:14;;;;;;;17.08;10.55;;;;;;;23.02;100.00;-18367.56;5053745;28;20194;-63
2022/08/23 02:39:42;;;;;;;12.82;9.80;;;;;;;22.99;100.00;-18366.72;5054036;28;20196;-63
2022/08/23 02:42:10;;;;;;;17.13;9.60;;;;;;;22.89;100.00;-18364.47;5054004;28;20268;-63
2022/08/23 02:44:38;;;;;;;13.75;9.20;;;;;;;22.91;100.00;-18364.94;5053541;28;20200;-63
2022/08/23 02:47:07;;;;;;;14.63;9.63;;;;;;;22.90;100.00;-18364.72;5053483;28;20193;-64
2022/08/23 02:49:35;;;;;;;22.05;10.65;;;;;;;23.00;100.00;-18367.09;5053762;28;20209;-64
2022/08/23 02:52:05;;;;;;;18.08;10.55;;;;;;;23.03;100.00;-18367.81;5053969;28;20566;-63
2022/08/23 02:54:32;;;;;;;16.65;10.40;;;;;;;22.93;100.00;-18365.31;5053447;28;20236;-63
2022/08/23 02:57:00;;;;;;;17.63;9.98;;;;;;;23.03;100.00;-18367.69;5053669;28;20279;-63
2022/08/23 02:59:27;;;;;;;15.20;10.57;;;;;;;23.02;100.00;-18367.56;5053667;28;20632;-63
2022/08/23 03:01:54;;;;;;;14.65;9.80;;;;;;;23.04;100.00;-18367.91;5053690;28;20189;-62
2022/08/23 03:04:21;;;;;;;21.95;9.85;;;;;;;23.03;100.00;-18367.81;5053183;28;20190;-63
2022/08/23 03:06:48;;;;;;;17.75;10.35;;;;;;;23.01;100.00;-18367.31;5053480;28;20255;-63
2022/08/23 03:09:18;;;;;;;16.10;10.35;;;;;;;22.88;100.00;-18364.13;5053637;28;20217;-63
2022/08/23 03:11:46;;;;;;;20.25;10.55;;;;;;;22.95;100.00;-18365.78;5053031;28;20189;-63
2022/08/23 03:14:13;;;;;;;27.92;10.90;;;;;;;22.96;100.00;-18366.13;5053113;28;20182;-63
2022/08/23 03:16:41;;;;;;;26.17;11.88;;;;;;;23.03;100.00;-18367.81;5053335;28;20185;-63
2022/08/23 03:19:08;;;;;;;12.00;9.98;;;;;;;23.03;100.00;-18367.81;5053304;28;20195;-62
2022/08/23 03:21:36;;;;;;;21.92;10.60;;;;;;;22.96;100.00;-18366.13;5052801;28;20277;-63
2022/08/23 03:24:03;;;;;;;18.85;10.40;;;;;;;23.04;100.00;-18368.03;5053309;28;20648;-63
2022/08/23 03:26:31;;;;;;;16.42;11.43;;;;;;;23.02;100.00;-18367.44;5052903;28;20190;-62
2022/08/23 03:28:58;;;;;;;19.38;10.68;;;;;;;23.12;100.00;-18369.81;5052988;28;20210;-63
2022/08/23 03:31:25;;;;;;;17.33;10.68;;;;;;;23.19;100.00;-18371.47;5053011;28;20189;-62
2022/08/23 03:33:52;;;;;;;24.00;11.18;;;;;;;23.23;100.00;-18372.53;5052896;28;20192;-63
2022/08/23 03:36:20;;;;;;;31.55;11.82;;;;;;;23.31;100.00;-18374.31;5052541;28;20190;-61
2022/08/23 03:38:47;;;;;;;38.58;12.45;;;;;;;23.38;100.00;-18376.00;5052808;28;20181;-63
2022/08/23 03:41:14;;;;;;;22.25;11.55;;;;;;;23.27;100.00;-18373.38;5052665;28;20199;-63
2022/08/23 03:43:42;;;;;;;21.83;11.48;;;;;;;23.35;100.00;-18375.16;5052645;28;20188;-63
2022/08/23 03:46:21;;;;;;;23.80;11.38;;;;;;;23.50;100.00;-18378.84;5052692;28;20284;-63
2022/08/23 03:48:49;;;;;;;15.23;11.15;;;;;;;23.50;100.00;-18378.72;5051927;28;20215;-62
2022/08/23 03:51:17;;;;;;;22.55;10.40;;;;;;;23.52;100.00;-18379.31;5051706;28;20552;-63
2022/08/23 03:53:45;;;;;;;12.48;10.68;;;;;;;23.58;100.00;-18380.63;5052521;28;20181;-64
2022/08/23 03:56:21;;;;;;;26.05;10.55;;;;;;;23.54;100.00;-18379.78;5052418;28;20185;-63
2022/08/23 03:58:50;;;;;;;17.65;10.68;;;;;;;23.72;100.00;-18383.81;5052536;28;20177;-63
2022/08/23 04:01:17;;;;;;;21.83;11.90;;;;;;;23.91;100.00;-18388.44;5053100;28;20703;-63
2022/08/23 04:03:43;;;;;;;12.27;10.32;;;;;;;23.80;100.00;-18385.84;5052190;28;20185;-63
2022/08/23 04:06:11;;;;;;;13.38;9.20;;;;;;;23.80;100.00;-18385.72;5052518;28;20537;-63
2022/08/23 04:08:38;;;;;;;11.15;9.30;;;;;;;23.98;100.00;-18389.97;5052475;28;20331;-63
2022/08/23 04:11:05;;;;;;;12.65;9.43;;;;;;;23.99;100.00;-18390.34;5052158;28;20193;-63
2022/08/23 04:13:32;;;;;;;19.98;11.40;;;;;;;24.11;100.00;-18393.19;5052487;28;20545;-63
2022/08/23 04:16:02;;;;;;;12.65;9.95;;;;;;;24.12;100.00;-18393.44;5052289;28;20565;-63
2022/08/23 04:18:30;;;;;;;9.75;9.18;;;;;;;24.16;100.00;-18394.13;5052143;28;20221;-63
2022/08/23 04:20:59;;;;;;;9.93;9.25;;;;;;;24.26;100.00;-18396.50;5052308;28;20229;-63
2022/08/23 04:23:30;;;;;;;12.50;8.73;;;;;;;24.45;100.00;-18401.00;5051947;28;20244;-63
2022/08/23 04:25:57;;;;;;;8.75;8.07;;;;;;;24.39;100.00;-18399.72;5052165;28;20213;-63
2022/08/23 04:28:24;;;;;;;8.63;8.23;;;;;;;24.86;100.00;-18410.59;5052272;28;20620;-64
2022/08/23 04:30:52;;;;;;;7.95;7.45;;;;;;;25.12;100.00;-18416.75;5052057;28;20207;-63
2022/08/23 04:33:20;;;;;;;9.80;7.93;;;;;;;25.38;100.00;-18422.78;5051836;28;20185;-64
2022/08/23 04:35:47;;;;;;;10.00;7.22;;;;;;;25.50;100.00;-18425.63;5052173;28;20189;-64
2022/08/23 04:38:13;;;;;;;7.45;6.65;;;;;;;25.62;100.00;-18428.34;5051738;28;20664;-63
2022/08/23 04:43:26;;;;;;;7.28;6.68;;;;;;;25.60;100.00;-15169.97;5051931;28;20196;-64
2022/08/23 04:45:53;;;;;;;5.70;5.40;;;;;;;25.79;100.00;-15825.22;5051874;28;20200;-65
2022/08/23 04:48:22;;;;;;;7.25;6.43;;;;;;;25.68;100.00;-16800.16;5052035;28;20556;-65
2022/08/23 04:50:49;;;;;;;12.40;6.18;;;;;;;25.66;100.00;-18102.03;5051843;28;20201;-63
2022/08/23 04:53:17;;;;;;;6.35;5.95;;;;;;;25.53;100.00;-18426.34;5051913;28;20216;-63
2022/08/23 04:55:44;;;;;;;9.95;6.65;;;;;;;25.65;100.00;-18429.06;5052042;28;20192;-63
2022/08/23 04:58:10;;;;;;;7.72;7.13;;;;;;;25.74;100.00;-18431.19;5051603;28;20186;-63
2022/08/23 05:00:38;;;;;;;7.70;6.10;;;;;;;25.87;100.00;-18432.47;5055371;28;20188;-64
2022/08/23 05:03:05;;;;;;;6.82;6.22;;;;;;;25.98;100.00;-18434.84;5055438;28;20185;-63
2022/08/23 05:05:33;;;;;;;6.68;6.22;;;;;;;26.02;100.00;-15829.50;5055398;28;20185;-63
2022/08/23 05:08:00;;;;;;;6.50;6.00;;;;;;;26.14;100.00;-14853.78;5055994;28;20556;-65
2022/08/23 05:10:27;;;;;;;5.70;5.22;;;;;;;26.32;100.00;-13552.06;5054451;28;20596;-63
2022/08/23 05:12:54;;;;;;;8.45;5.70;;;;;;;26.16;100.00;-12244.47;5055236;28;20185;-64
2022/08/23 05:15:21;;;;;;;6.78;6.07;;;;;;;26.20;100.00;-13876.47;5055101;28;20216;-63
2022/08/23 05:17:48;;;;;;;8.85;5.93;;;;;;;26.13;100.00;-14853.69;5055198;28;20189;-64
2022/08/23 05:20:15;;;;;;;9.43;5.65;;;;;;;26.09;100.00;-15505.00;5054098;28;20208;-64
2022/08/23 05:22:43;;;;;;;6.30;5.93;;;;;;;26.04;100.00;-16155.81;5054901;28;20225;-63
2022/08/23 05:25:10;;;;;;;6.68;6.07;;;;;;;26.05;100.00;-18110.81;5055041;28;20185;-64
2022/08/23 05:27:38;;;;;;;6.78;6.40;;;;;;;25.74;100.00;-18431.31;5054911;28;20189;-62
2022/08/23 05:30:06;;;;;;;6.25;5.85;;;;;;;25.77;100.00;-18431.91;5055390;28;20224;-66
2022/08/23 05:32:33;;;;;;;6.72;6.32;;;;;;;25.92;100.00;-18435.44;5054816;28;20199;-65
2022/08/23 05:35:00;;;;;;;7.18;5.93;;;;;;;26.09;100.00;-18437.56;5055418;28;20212;-65
2022/08/23 05:37:27;;;;;;;6.18;5.78;;;;;;;26.29;100.00;-14856.56;5054874;28;20186;-66
2022/08/23 05:39:56;;;;;;;7.82;6.70;;;;;;;26.55;100.00;-11596.59;5055221;28;20652;-65
2022/08/23 05:42:23;;;;;;;9.82;8.88;;;;;;;26.70;100.00;-10291.47;5054919;28;20235;-64
2022/08/23 05:44:50;;;;;;;8.05;7.35;;;;;;;26.82;100.00;-6694.97;5055315;28;20189;-65
2022/08/23 05:47:18;;;;;;;7.03;6.53;;;;;;;27.06;100.00;-1781.84;5054908;28;20220;-65
2022/08/23 05:49:45;;;;;;;10.55;7.25;;;;;;;27.01;100.00;-142.41;5055124;28;20209;-66
2022/08/23 05:52:13;;;;;;;7.97;6.82;;;;;;;27.11;100.00;2811.94;5054524;28;20367;-64
2022/08/23 05:54:41;;;;;;;7.53;6.93;;;;;;;27.15;100.00;3140.78;5054856;28;20635;-65
2022/08/23 05:57:10;;;;;;;8.45;7.60;;;;;;;28.12;100.00;22613.97;5054629;28;20216;-66
2022/08/23 05:59:37;;;;;;;11.43;7.95;;;;;;;28.51;100.00;43885.53;5055070;28;20610;-65
2022/08/23 06:02:04;;;;;;;9.88;6.55;;;;;;;28.55;100.00;46888.63;5054414;28;20193;-65
2022/08/23 06:04:31;;;;;;;11.27;6.88;;;;;;;28.62;100.00;54907.88;5055055;28;20190;-66
2022/08/23 06:06:58;;;;;;;9.45;6.95;;;;;;;28.72;100.00;56923.63;5054591;28;20296;-66
2022/08/23 06:09:26;;;;;;;13.45;7.00;;;;;;;29.20;100.00;77456.06;5053255;28;20223;-67
2022/08/23 06:11:53;;;;;;;16.05;7.70;;;;;;;29.71;100.00;99504.59;5055258;28;20192;-65
2022/08/23 06:14:22;;;;;;;9.40;6.65;;;;;;;30.96;100.00;153835.72;5053281;28;20193;-65
2022/08/23 06:16:50;;;;;;;12.65;7.35;;;;;;;32.08;100.00;154120.56;5054803;28;20181;-65
2022/08/23 06:19:17;;;;;;;10.18;6.20;;;;;;;32.01;100.00;154101.28;5054474;28;20284;-65
2022/08/23 06:21:45;;;;;;;14.77;6.97;;;;;;;31.94;100.00;154083.34;5054275;28;20236;-66
2022/08/23 06:24:13;;;;;;;10.00;7.38;;;;;;;31.17;100.00;153889.63;5054287;28;20193;-64
2022/08/23 06:26:43;;;;;;;14.38;7.22;;;;;;;30.68;100.00;153763.94;5054511;28;20556;-66
2022/08/23 06:29:14;;;;;;;19.02;7.57;;;;;;;30.40;100.00;153693.34;5054750;28;20243;-65
2022/08/23 06:31:46;;;;;;;15.25;7.05;;;;;;;30.72;100.00;153774.19;5053913;28;20205;-67
2022/08/23 06:34:17;;;;;;;9.75;7.30;;;;;;;30.85;100.00;153807.53;5055169;28;20251;-62
2022/08/23 06:36:44;;;;;;;13.55;7.68;;;;;;;30.97;100.00;153838.28;5053854;28;20672;-62
2022/08/23 06:39:11;;;;;;;15.65;6.82;;;;;;;31.12;100.00;153876.78;5053434;28;20296;-61
2022/08/23 06:41:39;;;;;;;12.48;7.90;;;;;;;30.97;100.00;153838.28;5053432;28;20185;-62
2022/08/23 06:44:10;;;;;;;16.33;8.02;;;;;;;31.07;100.00;153863.94;5054226;28;20636;-63
2022/08/23 06:46:38;;;;;;;15.82;7.38;;;;;;;31.08;100.00;153866.53;5053533;28;20205;-61
2022/08/23 06:49:08;;;;;;;12.20;6.57;;;;;;;30.81;100.00;153797.22;5053200;28;20196;-63
2022/08/23 06:51:38;;;;;;;8.88;6.63;;;;;;;30.59;100.00;153742.13;5053624;28;20660;-62
2022/08/23 06:54:08;;;;;;;16.20;6.63;;;;;;;30.32;100.00;153674.13;5053162;28;20189;-61
2022/08/23 06:56:36;;;;;;;18.00;6.15;;;;;;;30.21;100.00;153645.97;5053374;28;20181;-62
2022/08/23 06:59:05;;;;;;;22.17;7.18;;;;;;;29.94;100.00;153576.75;5053439;28;20192;-55
2022/08/23 07:01:40;;;;;;;17.75;6.97;;;;;;;29.92;100.00;153572.88;5054485;28;20659;-63
2022/08/23 07:04:18;;;;;;;16.20;7.57;;;;;;;29.83;100.00;153548.50;5053041;28;20192;-62
2022/08/23 07:06:45;;;;;;;22.90;8.50;;;;;;;29.70;100.00;140108.09;5053254;28;20190;-62
2022/08/23 07:09:12;;;;;;;37.53;10.63;;;;;;;29.85;100.00;148324.25;5053416;28;20725;-63
2022/08/23 07:11:40;;;;;;;39.95;9.30;;;;;;;29.87;100.00;153558.81;5053160;28;20228;-62
2022/08/23 07:14:11;;;;;;;23.63;8.70;;;;;;;30.19;100.00;153640.81;5053089;28;20641;-61
2022/08/23 07:16:40;;;;;;;23.77;8.00;;;;;;;30.17;100.00;153634.41;5052905;28;20190;-60
2022/08/23 07:19:07;;;;;;;21.67;7.85;;;;;;;30.32;100.00;153674.13;5053187;28;20580;-60
2022/08/23 07:21:36;;;;;;;23.58;8.13;;;;;;;30.38;100.00;153689.50;5052433;28;20233;-62
2022/08/23 07:24:04;;;;;;;31.95;8.75;;;;;;;30.44;100.00;153703.66;5052326;28;20196;-61
2022/08/23 07:26:32;;;;;;;22.65;8.43;;;;;;;30.43;100.00;153701.03;5052684;28;20221;-62
2022/08/23 07:28:59;;;;;;;22.33;8.23;;;;;;;30.56;100.00;153733.13;5053333;28;20182;-60
2022/08/23 07:31:29;;;;;;;29.33;8.18;;;;;;;30.73;100.00;153778.00;5052540;28;20244;-61
2022/08/23 07:33:58;;;;;;;23.67;8.25;;;;;;;30.33;100.00;153675.44;5052531;28;20243;-61
2022/08/23 07:36:27;;;;;;;24.23;8.50;;;;;;;30.27;100.00;153660.03;5052414;28;20193;-62
2022/08/23 07:38:56;;;;;;;20.00;8.05;;;;;;;29.96;100.00;153580.59;5052378;28;20193;-62
2022/08/23 07:41:24;;;;;;;26.60;8.50;;;;;;;30.02;100.00;153595.94;5052399;28;20276;-62
2022/08/23 07:43:51;;;;;;;23.15;7.65;;;;;;;30.21;100.00;153644.66;5051200;28;20204;-62
2022/08/23 07:46:18;;;;;;;21.10;7.93;;;;;;;30.28;100.00;153663.88;5052251;28;20645;-61
2022/08/23 07:48:45;;;;;;;12.48;7.57;;;;;;;30.39;100.00;153690.78;5052284;28;20193;-62
2022/08/23 07:51:14;;;;;;;18.00;7.38;;;;;;;30.31;100.00;153670.28;5066084;28;20209;-61
2022/08/23 07:53:42;;;;;;;19.55;8.13;;;;;;;30.19;100.00;153639.53;5072257;28;20185;-62
2022/08/23 07:56:13;;;;;;;19.40;7.85;;;;;;;30.14;100.00;153628.00;5071947;28;20191;-61
2022/08/23 07:58:41;;;;;;;16.25;7.40;;;;;;;29.51;100.00;153467.78;5072140;28;20217;-61
2022/08/23 08:01:13;;;;;;;20.17;7.85;;;;;;;29.85;100.00;153553.63;5072209;28;20185;-63
2022/08/23 08:03:40;;;;;;;24.77;7.35;;;;;;;30.08;100.00;153611.34;5072929;28;20621;-62
2022/08/23 08:06:11;;;;;;;15.45;6.45;;;;;;;30.20;100.00;153643.38;5072115;28;20267;-62
2022/08/23 08:08:39;;;;;;;11.88;6.70;;;;;;;30.59;100.00;153740.84;5071803;28;20634;-61
2022/08/23 08:11:07;;;;;;;25.90;7.93;;;;;;;30.81;100.00;153797.22;5071995;28;20244;-62
2022/08/23 08:13:37;;;;;;;22.20;6.57;;;;;;;30.77;100.00;153786.97;5071756;28;20189;-61
2022/08/23 08:16:06;;;;;;;20.23;6.43;;;;;;;31.06;100.00;153861.44;5072598;28;20609;-61
2022/08/23 08:18:41;;;;;;;13.82;5.80;;;;;;;31.23;100.00;153904.97;5072446;28;20287;-62
2022/08/23 08:21:14;;;;;;;18.70;6.38;;;;;;;31.10;100.00;153871.69;5072133;28;20228;-62
2022/08/23 08:23:41;;;;;;;19.50;6.65;;;;;;;31.42;100.00;153951.16;5071918;28;20188;-61
2022/08/23 08:26:09;;;;;;;19.08;5.97;;;;;;;31.14;100.00;153881.94;5071748;28;20235;-61
2022/08/23 08:28:41;;;;;;;12.55;6.30;;;;;;;31.19;100.00;153894.72;5072011;28;20189;-62
2022/08/23 08:31:08;;;;;;;20.17;5.88;;;;;;;30.96;100.00;153835.72;5071717;28;20212;-61
2022/08/23 08:33:35;;;;;;;11.07;5.75;;;;;;;30.82;100.00;153799.78;5071184;28;20215;-62
2022/08/23 08:36:04;;;;;;;18.15;6.18;;;;;;;30.75;100.00;153781.88;5072343;28;20195;-61
2022/08/23 08:38:36;;;;;;;23.48;6.53;;;;;;;30.69;100.00;153767.75;5071992;28;20193;-62
2022/08/23 08:41:11;;;;;;;10.52;5.82;;;;;;;31.09;100.00;153867.81;5069284;28;20189;-62
2022/08/23 08:43:57;;;;;;;14.95;5.20;;;;;;;30.98;100.00;153839.56;5072164;28;20520;-61
2022/08/23 08:46:38;;;;;;;16.20;5.18;;;;;;;31.19;100.00;153894.72;5072123;28;20196;-60
2022/08/23 08:49:07;;;;;;;9.38;4.63;;;;;;;31.29;100.00;153920.38;5071692;28;20276;-61
2022/08/23 08:51:44;;;;;;;12.48;6.25;;;;;;;31.40;100.00;153946.06;5071879;28;20308;-61
2022/08/23 08:54:14;;;;;;;14.13;5.05;;;;;;;31.80;100.00;154048.69;5071069;28;20184;-61
2022/08/23 08:56:42;;;;;;;10.45;5.13;;;;;;;32.38;100.00;154195.03;5071286;28;20214;-62
2022/08/23 08:59:19;;;;;;;12.98;5.00;;;;;;;32.04;100.00;154110.25;5068767;28;20195;-61
2022/08/23 09:01:46;;;;;;;15.40;5.15;;;;;;;31.89;100.00;154071.78;5070837;28;20279;-61
2022/08/23 09:04:13;;;;;;;14.30;5.00;;;;;;;32.07;100.00;154118.00;5071095;28;20271;-61
2022/08/23 09:06:49;;;;;;;15.40;4.90;;;;;;;32.30;100.00;154174.47;5071221;28;20196;-62
2022/08/23 09:09:29;;;;;;;10.32;5.30;;;;;;;32.39;100.00;154198.84;5071347;28;20191;-63
2022/08/23 09:12:05;;;;;;;16.42;5.47;;;;;;;32.67;100.00;154268.22;5069355;28;20251;-62
2022/08/23 09:15:03;;;;;;;12.90;5.85;;;;;;;32.84;100.00;154311.88;5056752;28;20207;-62
2022/08/23 09:17:43;;;;;;;13.73;6.05;;;;;;;32.82;100.00;154308.00;5061369;28;20254;-61
2022/08/23 09:20:13;;;;;;;20.73;6.88;;;;;;;32.51;100.00;154228.34;5071693;28;20610;-61
2022/08/23 09:22:45;;;;;;;27.98;6.68;;;;;;;32.07;100.00;154116.69;5071436;28;20225;-65
2022/08/23 09:25:38;;;;;;;16.52;6.53;;;;;;;31.83;100.00;154056.38;5060543;28;20204;-62
2022/08/23 09:28:06;;;;;;;28.25;8.15;;;;;;;31.77;100.00;154041.00;5063594;28;20201;-61
2022/08/23 09:30:50;;;;;;;25.75;7.63;;;;;;;31.57;100.00;153989.72;5067564;28;20330;-61
2022/08/23 09:33:19;;;;;;;15.38;6.43;;;;;;;31.42;100.00;153952.44;5071472;28;20280;-62
2022/08/23 09:36:04;;;;;;;29.65;7.43;;;;;;;31.43;100.00;153953.72;5072239;28;20223;-63
2022/08/23 09:38:32;;;;;;;17.60;6.72;;;;;;;31.24;100.00;153907.56;5071298;28;20276;-61
2022/08/23 09:40:59;;;;;;;25.30;7.00;;;;;;;31.10;100.00;153870.41;5070871;28;20276;-62
2022/08/23 09:43:30;;;;;;;24.92;6.88;;;;;;;31.10;100.00;153870.41;5071378;28;20271;-63
2022/08/23 09:46:01;;;;;;;28.73;6.63;;;;;;;31.10;100.00;153871.69;5072656;28;20219;-62
2022/08/23 09:48:38;;;;;;;20.80;7.18;;;;;;;31.02;100.00;153851.13;5075018;28;20184;-62
2022/08/23 09:51:24;;;;;;;27.00;7.30;;;;;;;31.12;100.00;153876.78;5074817;28;20362;-61
2022/08/23 09:54:03;;;;;;;22.92;6.63;;;;;;;31.08;100.00;153866.53;5074194;28;20199;-62
2022/08/23 09:56:33;;;;;;;23.13;6.93;;;;;;;31.25;100.00;153908.84;5074852;28;20609;-62
2022/08/23 09:59:01;;;;;;;24.70;6.72;;;;;;;31.21;100.00;153899.88;5074844;28;20218;-62
2022/08/23 10:01:33;;;;;;;20.55;6.28;;;;;;;31.40;100.00;153946.06;5073938;28;20184;-61
2022/08/23 10:04:13;;;;;;;19.38;6.65;;;;;;;31.29;100.00;153920.38;5074354;28;20245;-63
2022/08/23 10:06:44;;;;;;;21.20;6.40;;;;;;;31.33;100.00;153929.34;5072955;28;20204;-62
2022/08/23 10:09:28;;;;;;;14.43;6.20;;;;;;;31.02;100.00;153851.13;5071774;28;20189;-62
2022/08/23 10:11:57;;;;;;;13.40;6.75;;;;;;;31.16;100.00;153887.03;5054554;28;20610;-62
2022/08/23 10:14:25;;;;;;;17.98;6.18;;;;;;;31.11;100.00;153874.22;5054661;28;20571;-62
2022/08/23 10:17:04;;;;;;;19.23;6.53;;;;;;;31.09;100.00;153869.09;5054307;28;20186;-62
2022/08/23 10:19:42;;;;;;;16.55;6.20;;;;;;;31.19;100.00;153894.72;5054116;28;20255;-62
2022/08/23 10:22:17;;;;;;;17.58;5.82;;;;;;;31.18;100.00;153892.19;5054037;28;20221;-62
2022/08/23 10:24:47;;;;;;;27.48;7.38;;;;;;;31.14;100.00;153880.66;5054182;28;20702;-61
2022/08/23 10:30:17;;;;;;;14.45;6.45;;;;;;;31.01;100.00;153847.31;5053245;28;20564;-63
2022/08/23 10:33:08;;;;;;;20.52;6.90;;;;;;;31.21;100.00;153899.88;5053835;28;20206;-62
2022/08/23 10:35:43;;;;;;;16.85;6.65;;;;;;;31.27;100.00;153915.22;5053849;28;20217;-62
2022/08/23 10:38:43;;;;;;;10.75;6.25;;;;;;;31.09;100.00;153869.09;5053995;28;20624;-63
2022/08/23 10:41:38;;;;;;;21.20;6.82;;;;;;;31.20;100.00;153897.28;5012002;28;20650;-63
2022/08/23 10:44:21;;;;;;;16.27;6.28;;;;;;;31.43;100.00;153955.03;5051724;28;20670;-63
2022/08/23 10:46:58;;;;;;;13.25;5.45;;;;;;;31.44;100.00;153956.31;5053926;28;20572;-63
2022/08/23 10:49:28;;;;;;;22.40;6.22;;;;;;;31.36;100.00;153935.78;5053340;28;20195;-62
2022/08/23 10:51:58;;;;;;;10.93;5.65;;;;;;;31.23;100.00;153904.97;5053448;28;20216;-62
2022/08/23 10:54:44;;;;;;;18.85;5.72;;;;;;;31.33;100.00;153929.34;5053516;28;20194;-61
2022/08/23 10:57:14;;;;;;;21.75;6.97;;;;;;;31.18;100.00;153890.91;5052063;28;20185;-63
2022/08/23 10:59:47;;;;;;;17.38;5.43;;;;;;;30.85;100.00;153807.53;5053326;28;20193;-62
2022/08/23 11:02:22;;;;;;;15.35;6.03;;;;;;;30.66;100.00;153760.06;5053626;28;20181;-62
2022/08/23 11:04:56;;;;;;;11.27;5.32;;;;;;;30.70;100.00;153769.03;5059460;28;20238;-64
2022/08/23 11:07:28;;;;;;;19.10;6.22;;;;;;;30.56;100.00;153733.13;5072581;28;20189;-63
2022/08/23 11:10:07;;;;;;;11.38;6.30;;;;;;;30.56;100.00;153733.13;5073270;28;20191;-63
2022/08/23 11:12:37;;;;;;;13.45;6.13;;;;;;;30.38;100.00;153689.50;5070873;28;20278;-63
2022/08/23 11:15:18;;;;;;;16.38;6.40;;;;;;;30.47;100.00;153710.09;5073495;28;20279;-63
2022/08/23 11:17:57;;;;;;;16.50;6.07;;;;;;;30.34;100.00;153679.25;5072973;28;20189;-63
2022/08/23 11:20:58;;;;;;;18.55;6.75;;;;;;;30.24;100.00;153653.63;5073185;28;20196;-63
2022/08/23 11:23:46;;;;;;;13.55;5.80;;;;;;;30.05;100.00;153603.63;5065149;28;20250;-63
2022/08/23 11:26:48;;;;;;;15.48;6.15;;;;;;;29.89;100.00;153563.91;5073200;28;20643;-63
2022/08/23 11:29:30;;;;;;;20.00;6.80;;;;;;;29.79;100.00;153538.28;5067034;28;20203;-63
2022/08/23 11:32:05;;;;;;;11.38;6.10;;;;;;;29.61;100.00;153492.13;5072991;28;20297;-61
2022/08/23 11:34:43;;;;;;;13.40;6.07;;;;;;;29.42;100.00;151844.47;5072838;28;20180;-62
2022/08/23 11:37:48;;;;;;;11.80;5.97;;;;;;;29.27;100.00;129735.97;5072791;28;20192;-63
2022/08/23 11:40:35;;;;;;;12.95;7.50;;;;;;;29.09;100.00;53948.22;5072693;28;20188;-66